sensor_id;sensor_type;location;lat;lon;timestamp;P1;durP1;ratioP1;P2;durP2;ratioP2
25023;SDS011;13033;50.936;5.334;2024-02-26T00:01:23;2.17;;;1.20;;
25023;SDS011;13033;50.936;5.334;2024-02-26T00:03:49;2.65;;;1.20;;
25023;SDS011;13033;50.936;5.334;2024-02-26T00:06:15;2.88;;;1.23;;
25023;SDS011;13033;50.936;5.334;2024-02-26T00:08:41;3.47;;;1.50;;
25023;SDS011;13033;50.936;5.334;2024-02-26T00:11:06;3.00;;;1.50;;
25023;SDS011;13033;50.936;5.334;2024-02-26T00:13:32;4.05;;;1.30;;
25023;SDS011;13033;50.936;5.334;2024-02-26T00:15:58;1.85;;;1.25;;
25023;SDS011;13033;50.936;5.334;2024-02-26T00:18:23;2.20;;;1.27;;
25023;SDS011;13033;50.936;5.334;2024-02-26T00:20:49;2.05;;;1.20;;
25023;SDS011;13033;50.936;5.334;2024-02-26T00:23:15;2.75;;;1.20;;
25023;SDS011;13033;50.936;5.334;2024-02-26T00:25:41;2.80;;;1.40;;
25023;SDS011;13033;50.936;5.334;2024-02-26T00:28:08;3.33;;;1.50;;
25023;SDS011;13033;50.936;5.334;2024-02-26T00:30:35;3.88;;;1.30;;
25023;SDS011;13033;50.936;5.334;2024-02-26T00:33:00;3.17;;;1.52;;
25023;SDS011;13033;50.936;5.334;2024-02-26T00:35:26;2.67;;;1.42;;
25023;SDS011;13033;50.936;5.334;2024-02-26T00:37:52;3.40;;;1.55;;
25023;SDS011;13033;50.936;5.334;2024-02-26T00:40:18;2.25;;;1.50;;
25023;SDS011;13033;50.936;5.334;2024-02-26T00:42:44;5.35;;;1.58;;
25023;SDS011;13033;50.936;5.334;2024-02-26T00:45:14;2.38;;;1.50;;
25023;SDS011;13033;50.936;5.334;2024-02-26T00:47:41;3.70;;;1.30;;
25023;SDS011;13033;50.936;5.334;2024-02-26T00:50:07;5.28;;;1.45;;
25023;SDS011;13033;50.936;5.334;2024-02-26T00:52:34;2.83;;;1.58;;
25023;SDS011;13033;50.936;5.334;2024-02-26T00:55:00;1.75;;;1.50;;
25023;SDS011;13033;50.936;5.334;2024-02-26T00:57:27;2.65;;;1.40;;
25023;SDS011;13033;50.936;5.334;2024-02-26T00:59:53;2.67;;;1.40;;
25023;SDS011;13033;50.936;5.334;2024-02-26T01:02:20;2.55;;;1.40;;
25023;SDS011;13033;50.936;5.334;2024-02-26T01:04:46;3.13;;;1.58;;
25023;SDS011;13033;50.936;5.334;2024-02-26T01:07:12;3.08;;;1.60;;
25023;SDS011;13033;50.936;5.334;2024-02-26T01:09:38;2.38;;;1.42;;
25023;SDS011;13033;50.936;5.334;2024-02-26T01:12:04;3.28;;;1.50;;
25023;SDS011;13033;50.936;5.334;2024-02-26T01:14:29;3.25;;;1.42;;
25023;SDS011;13033;50.936;5.334;2024-02-26T01:16:55;4.25;;;1.20;;
25023;SDS011;13033;50.936;5.334;2024-02-26T01:19:21;2.38;;;1.20;;
25023;SDS011;13033;50.936;5.334;2024-02-26T01:21:46;4.45;;;1.40;;
25023;SDS011;13033;50.936;5.334;2024-02-26T01:24:12;1.63;;;1.15;;
25023;SDS011;13033;50.936;5.334;2024-02-26T01:26:38;2.95;;;1.50;;
25023;SDS011;13033;50.936;5.334;2024-02-26T01:29:04;1.38;;;1.20;;
25023;SDS011;13033;50.936;5.334;2024-02-26T01:31:30;1.83;;;1.30;;
25023;SDS011;13033;50.936;5.334;2024-02-26T01:33:56;2.00;;;1.20;;
25023;SDS011;13033;50.936;5.334;2024-02-26T01:36:21;2.00;;;1.42;;
25023;SDS011;13033;50.936;5.334;2024-02-26T01:38:47;1.75;;;1.30;;
25023;SDS011;13033;50.936;5.334;2024-02-26T01:41:13;2.30;;;1.38;;
25023;SDS011;13033;50.936;5.334;2024-02-26T01:43:39;2.50;;;1.58;;
25023;SDS011;13033;50.936;5.334;2024-02-26T01:46:05;2.80;;;1.40;;
25023;SDS011;13033;50.936;5.334;2024-02-26T01:48:34;1.73;;;1.20;;
25023;SDS011;13033;50.936;5.334;2024-02-26T01:51:00;5.05;;;1.50;;
25023;SDS011;13033;50.936;5.334;2024-02-26T01:53:26;3.42;;;1.60;;
25023;SDS011;13033;50.936;5.334;2024-02-26T01:55:52;3.10;;;1.30;;
25023;SDS011;13033;50.936;5.334;2024-02-26T01:58:17;4.82;;;1.50;;
25023;SDS011;13033;50.936;5.334;2024-02-26T02:00:43;4.25;;;1.50;;
25023;SDS011;13033;50.936;5.334;2024-02-26T02:03:09;4.35;;;1.38;;
25023;SDS011;13033;50.936;5.334;2024-02-26T02:05:35;3.45;;;1.40;;
25023;SDS011;13033;50.936;5.334;2024-02-26T02:08:06;1.65;;;1.10;;
25023;SDS011;13033;50.936;5.334;2024-02-26T02:10:34;3.72;;;1.38;;
25023;SDS011;13033;50.936;5.334;2024-02-26T02:13:00;1.70;;;1.23;;
25023;SDS011;13033;50.936;5.334;2024-02-26T02:15:25;2.97;;;1.30;;
25023;SDS011;13033;50.936;5.334;2024-02-26T02:17:51;3.45;;;1.45;;
25023;SDS011;13033;50.936;5.334;2024-02-26T02:20:17;2.40;;;1.40;;
25023;SDS011;13033;50.936;5.334;2024-02-26T02:22:46;4.70;;;1.08;;
25023;SDS011;13033;50.936;5.334;2024-02-26T02:25:12;4.97;;;1.40;;
25023;SDS011;13033;50.936;5.334;2024-02-26T02:27:39;2.95;;;1.70;;
25023;SDS011;13033;50.936;5.334;2024-02-26T02:30:05;2.17;;;1.52;;
25023;SDS011;13033;50.936;5.334;2024-02-26T02:32:32;2.72;;;1.40;;
25023;SDS011;13033;50.936;5.334;2024-02-26T02:34:58;3.20;;;1.77;;
25023;SDS011;13033;50.936;5.334;2024-02-26T02:37:24;2.65;;;1.40;;
25023;SDS011;13033;50.936;5.334;2024-02-26T02:39:50;3.92;;;1.75;;
25023;SDS011;13033;50.936;5.334;2024-02-26T02:42:15;2.97;;;1.63;;
25023;SDS011;13033;50.936;5.334;2024-02-26T02:44:41;4.30;;;1.83;;
25023;SDS011;13033;50.936;5.334;2024-02-26T02:47:07;5.07;;;2.00;;
25023;SDS011;13033;50.936;5.334;2024-02-26T02:49:33;2.53;;;1.80;;
25023;SDS011;13033;50.936;5.334;2024-02-26T02:51:58;4.03;;;2.00;;
25023;SDS011;13033;50.936;5.334;2024-02-26T02:54:24;3.45;;;2.38;;
25023;SDS011;13033;50.936;5.334;2024-02-26T02:56:49;5.03;;;2.22;;
25023;SDS011;13033;50.936;5.334;2024-02-26T02:59:15;3.85;;;2.03;;
25023;SDS011;13033;50.936;5.334;2024-02-26T03:01:41;3.03;;;2.25;;
25023;SDS011;13033;50.936;5.334;2024-02-26T03:04:06;4.35;;;2.08;;
25023;SDS011;13033;50.936;5.334;2024-02-26T03:06:32;5.07;;;2.03;;
25023;SDS011;13033;50.936;5.334;2024-02-26T03:08:58;3.33;;;2.10;;
25023;SDS011;13033;50.936;5.334;2024-02-26T03:11:23;3.13;;;1.90;;
25023;SDS011;13033;50.936;5.334;2024-02-26T03:13:51;3.42;;;2.15;;
25023;SDS011;13033;50.936;5.334;2024-02-26T03:16:17;5.28;;;1.98;;
25023;SDS011;13033;50.936;5.334;2024-02-26T03:18:43;4.93;;;1.90;;
25023;SDS011;13033;50.936;5.334;2024-02-26T03:21:08;2.63;;;1.75;;
25023;SDS011;13033;50.936;5.334;2024-02-26T03:23:34;4.53;;;1.80;;
25023;SDS011;13033;50.936;5.334;2024-02-26T03:26:03;3.38;;;1.73;;
25023;SDS011;13033;50.936;5.334;2024-02-26T03:28:29;1.98;;;1.70;;
25023;SDS011;13033;50.936;5.334;2024-02-26T03:30:56;4.65;;;1.75;;
25023;SDS011;13033;50.936;5.334;2024-02-26T03:33:21;2.65;;;1.52;;
25023;SDS011;13033;50.936;5.334;2024-02-26T03:35:47;2.10;;;1.67;;
25023;SDS011;13033;50.936;5.334;2024-02-26T03:38:13;1.90;;;1.38;;
25023;SDS011;13033;50.936;5.334;2024-02-26T03:40:39;3.22;;;1.40;;
25023;SDS011;13033;50.936;5.334;2024-02-26T03:43:04;2.38;;;1.67;;
25023;SDS011;13033;50.936;5.334;2024-02-26T03:45:32;3.15;;;1.60;;
25023;SDS011;13033;50.936;5.334;2024-02-26T03:47:58;3.17;;;1.73;;
25023;SDS011;13033;50.936;5.334;2024-02-26T03:50:24;5.45;;;2.10;;
25023;SDS011;13033;50.936;5.334;2024-02-26T03:52:50;2.85;;;1.95;;
25023;SDS011;13033;50.936;5.334;2024-02-26T03:55:15;2.42;;;1.63;;
25023;SDS011;13033;50.936;5.334;2024-02-26T03:57:46;5.47;;;1.92;;
25023;SDS011;13033;50.936;5.334;2024-02-26T04:00:12;3.90;;;1.80;;
25023;SDS011;13033;50.936;5.334;2024-02-26T04:02:38;2.92;;;1.70;;
25023;SDS011;13033;50.936;5.334;2024-02-26T04:05:04;3.35;;;1.92;;
25023;SDS011;13033;50.936;5.334;2024-02-26T04:07:30;2.35;;;1.80;;
25023;SDS011;13033;50.936;5.334;2024-02-26T04:09:56;3.00;;;2.00;;
25023;SDS011;13033;50.936;5.334;2024-02-26T04:12:22;3.83;;;2.05;;
25023;SDS011;13033;50.936;5.334;2024-02-26T04:14:47;5.18;;;2.50;;
25023;SDS011;13033;50.936;5.334;2024-02-26T04:17:13;3.67;;;2.17;;
25023;SDS011;13033;50.936;5.334;2024-02-26T04:19:38;2.47;;;1.92;;
25023;SDS011;13033;50.936;5.334;2024-02-26T04:22:04;4.45;;;2.67;;
25023;SDS011;13033;50.936;5.334;2024-02-26T04:24:30;2.90;;;2.58;;
25023;SDS011;13033;50.936;5.334;2024-02-26T04:26:56;3.92;;;2.30;;
25023;SDS011;13033;50.936;5.334;2024-02-26T04:29:21;4.45;;;2.72;;
25023;SDS011;13033;50.936;5.334;2024-02-26T04:31:47;4.97;;;2.83;;
25023;SDS011;13033;50.936;5.334;2024-02-26T04:34:13;3.90;;;2.67;;
25023;SDS011;13033;50.936;5.334;2024-02-26T04:36:38;4.38;;;3.03;;
25023;SDS011;13033;50.936;5.334;2024-02-26T04:39:04;3.90;;;3.30;;
25023;SDS011;13033;50.936;5.334;2024-02-26T04:41:30;5.25;;;3.40;;
25023;SDS011;13033;50.936;5.334;2024-02-26T04:43:55;4.05;;;3.08;;
25023;SDS011;13033;50.936;5.334;2024-02-26T04:46:21;4.72;;;3.17;;
25023;SDS011;13033;50.936;5.334;2024-02-26T04:48:47;3.97;;;2.90;;
25023;SDS011;13033;50.936;5.334;2024-02-26T04:51:13;4.40;;;3.03;;
25023;SDS011;13033;50.936;5.334;2024-02-26T04:53:38;3.65;;;2.70;;
25023;SDS011;13033;50.936;5.334;2024-02-26T04:56:04;4.43;;;2.65;;
25023;SDS011;13033;50.936;5.334;2024-02-26T04:58:30;4.90;;;2.85;;
25023;SDS011;13033;50.936;5.334;2024-02-26T05:00:56;3.88;;;2.90;;
25023;SDS011;13033;50.936;5.334;2024-02-26T05:03:21;4.68;;;3.22;;
25023;SDS011;13033;50.936;5.334;2024-02-26T05:05:47;4.15;;;2.97;;
25023;SDS011;13033;50.936;5.334;2024-02-26T05:08:13;4.63;;;3.22;;
25023;SDS011;13033;50.936;5.334;2024-02-26T05:10:38;3.90;;;2.75;;
25023;SDS011;13033;50.936;5.334;2024-02-26T05:13:08;3.63;;;2.65;;
25023;SDS011;13033;50.936;5.334;2024-02-26T05:15:34;4.38;;;3.20;;
25023;SDS011;13033;50.936;5.334;2024-02-26T05:18:00;3.67;;;3.03;;
25023;SDS011;13033;50.936;5.334;2024-02-26T05:20:27;4.47;;;3.00;;
25023;SDS011;13033;50.936;5.334;2024-02-26T05:22:53;4.57;;;3.05;;
25023;SDS011;13033;50.936;5.334;2024-02-26T05:25:19;4.18;;;3.30;;
25023;SDS011;13033;50.936;5.334;2024-02-26T05:27:45;7.72;;;3.90;;
25023;SDS011;13033;50.936;5.334;2024-02-26T05:30:10;6.50;;;3.50;;
25023;SDS011;13033;50.936;5.334;2024-02-26T05:32:36;4.85;;;3.35;;
25023;SDS011;13033;50.936;5.334;2024-02-26T05:35:02;6.25;;;3.40;;
25023;SDS011;13033;50.936;5.334;2024-02-26T05:37:29;5.88;;;3.97;;
25023;SDS011;13033;50.936;5.334;2024-02-26T05:39:55;6.93;;;4.18;;
25023;SDS011;13033;50.936;5.334;2024-02-26T05:42:21;6.65;;;3.67;;
25023;SDS011;13033;50.936;5.334;2024-02-26T05:44:46;6.50;;;4.00;;
25023;SDS011;13033;50.936;5.334;2024-02-26T05:47:12;7.40;;;4.65;;
25023;SDS011;13033;50.936;5.334;2024-02-26T05:49:38;6.70;;;4.25;;
25023;SDS011;13033;50.936;5.334;2024-02-26T05:52:05;7.15;;;5.10;;
25023;SDS011;13033;50.936;5.334;2024-02-26T05:54:31;8.50;;;4.80;;
25023;SDS011;13033;50.936;5.334;2024-02-26T05:56:57;7.75;;;5.03;;
25023;SDS011;13033;50.936;5.334;2024-02-26T05:59:22;8.20;;;5.22;;
25023;SDS011;13033;50.936;5.334;2024-02-26T06:01:49;7.07;;;5.30;;
25023;SDS011;13033;50.936;5.334;2024-02-26T06:04:14;10.27;;;5.63;;
25023;SDS011;13033;50.936;5.334;2024-02-26T06:06:42;11.63;;;6.43;;
25023;SDS011;13033;50.936;5.334;2024-02-26T06:09:07;9.05;;;5.78;;
25023;SDS011;13033;50.936;5.334;2024-02-26T06:11:33;9.60;;;6.10;;
25023;SDS011;13033;50.936;5.334;2024-02-26T06:13:59;8.82;;;6.00;;
25023;SDS011;13033;50.936;5.334;2024-02-26T06:16:24;8.68;;;5.97;;
25023;SDS011;13033;50.936;5.334;2024-02-26T06:18:50;8.73;;;6.10;;
25023;SDS011;13033;50.936;5.334;2024-02-26T06:21:15;9.63;;;5.95;;
25023;SDS011;13033;50.936;5.334;2024-02-26T06:23:41;8.75;;;6.40;;
25023;SDS011;13033;50.936;5.334;2024-02-26T06:26:07;11.38;;;6.45;;
25023;SDS011;13033;50.936;5.334;2024-02-26T06:28:33;9.52;;;5.85;;
25023;SDS011;13033;50.936;5.334;2024-02-26T06:31:00;9.68;;;6.80;;
25023;SDS011;13033;50.936;5.334;2024-02-26T06:33:26;9.25;;;6.13;;
25023;SDS011;13033;50.936;5.334;2024-02-26T06:35:52;9.70;;;5.90;;
25023;SDS011;13033;50.936;5.334;2024-02-26T06:38:18;7.78;;;5.55;;
25023;SDS011;13033;50.936;5.334;2024-02-26T06:40:44;8.60;;;5.22;;
25023;SDS011;13033;50.936;5.334;2024-02-26T06:43:10;10.20;;;5.65;;
25023;SDS011;13033;50.936;5.334;2024-02-26T06:45:35;10.73;;;5.80;;
25023;SDS011;13033;50.936;5.334;2024-02-26T06:48:01;8.25;;;5.57;;
25023;SDS011;13033;50.936;5.334;2024-02-26T06:50:27;8.02;;;5.50;;
25023;SDS011;13033;50.936;5.334;2024-02-26T06:52:53;10.40;;;5.63;;
25023;SDS011;13033;50.936;5.334;2024-02-26T06:55:18;9.40;;;5.80;;
25023;SDS011;13033;50.936;5.334;2024-02-26T06:57:44;8.23;;;4.82;;
25023;SDS011;13033;50.936;5.334;2024-02-26T07:00:10;9.15;;;5.70;;
25023;SDS011;13033;50.936;5.334;2024-02-26T07:02:39;10.23;;;5.18;;
25023;SDS011;13033;50.936;5.334;2024-02-26T07:05:06;8.15;;;4.97;;
25023;SDS011;13033;50.936;5.334;2024-02-26T07:07:32;7.22;;;5.10;;
25023;SDS011;13033;50.936;5.334;2024-02-26T07:09:57;9.05;;;5.10;;
25023;SDS011;13033;50.936;5.334;2024-02-26T07:12:23;7.00;;;4.80;;
25023;SDS011;13033;50.936;5.334;2024-02-26T07:14:49;9.75;;;5.45;;
25023;SDS011;13033;50.936;5.334;2024-02-26T07:17:15;7.65;;;5.15;;
25023;SDS011;13033;50.936;5.334;2024-02-26T07:19:41;7.15;;;5.10;;
25023;SDS011;13033;50.936;5.334;2024-02-26T07:22:07;8.13;;;4.80;;
25023;SDS011;13033;50.936;5.334;2024-02-26T07:24:33;7.38;;;4.80;;
25023;SDS011;13033;50.936;5.334;2024-02-26T07:26:59;8.18;;;5.22;;
25023;SDS011;13033;50.936;5.334;2024-02-26T07:29:25;7.15;;;5.30;;
25023;SDS011;13033;50.936;5.334;2024-02-26T07:31:50;11.98;;;6.38;;
25023;SDS011;13033;50.936;5.334;2024-02-26T07:34:16;9.27;;;5.63;;
25023;SDS011;13033;50.936;5.334;2024-02-26T07:36:42;8.15;;;4.93;;
25023;SDS011;13033;50.936;5.334;2024-02-26T07:39:07;9.13;;;5.35;;
25023;SDS011;13033;50.936;5.334;2024-02-26T07:41:33;8.55;;;5.22;;
25023;SDS011;13033;50.936;5.334;2024-02-26T07:43:59;11.00;;;6.05;;
25023;SDS011;13033;50.936;5.334;2024-02-26T07:46:25;9.55;;;5.97;;
25023;SDS011;13033;50.936;5.334;2024-02-26T07:48:50;10.13;;;5.65;;
25023;SDS011;13033;50.936;5.334;2024-02-26T07:51:16;8.18;;;5.80;;
25023;SDS011;13033;50.936;5.334;2024-02-26T07:53:42;9.15;;;6.53;;
25023;SDS011;13033;50.936;5.334;2024-02-26T07:56:08;11.02;;;6.95;;
25023;SDS011;13033;50.936;5.334;2024-02-26T07:58:34;10.40;;;6.55;;
25023;SDS011;13033;50.936;5.334;2024-02-26T08:01:00;9.13;;;6.55;;
25023;SDS011;13033;50.936;5.334;2024-02-26T08:03:27;11.45;;;7.60;;
25023;SDS011;13033;50.936;5.334;2024-02-26T08:05:53;9.18;;;6.78;;
25023;SDS011;13033;50.936;5.334;2024-02-26T08:08:19;9.55;;;7.30;;
25023;SDS011;13033;50.936;5.334;2024-02-26T08:10:45;10.20;;;7.45;;
25023;SDS011;13033;50.936;5.334;2024-02-26T08:13:11;9.68;;;7.13;;
25023;SDS011;13033;50.936;5.334;2024-02-26T08:15:36;10.88;;;7.30;;
25023;SDS011;13033;50.936;5.334;2024-02-26T08:18:02;10.65;;;7.45;;
25023;SDS011;13033;50.936;5.334;2024-02-26T08:20:29;9.45;;;7.50;;
25023;SDS011;13033;50.936;5.334;2024-02-26T08:22:55;10.25;;;7.85;;
25023;SDS011;13033;50.936;5.334;2024-02-26T08:25:21;10.30;;;7.97;;
25023;SDS011;13033;50.936;5.334;2024-02-26T08:27:47;10.93;;;8.35;;
25023;SDS011;13033;50.936;5.334;2024-02-26T08:30:13;9.43;;;7.68;;
25023;SDS011;13033;50.936;5.334;2024-02-26T08:32:42;12.35;;;8.35;;
25023;SDS011;13033;50.936;5.334;2024-02-26T08:35:08;10.60;;;7.75;;
25023;SDS011;13033;50.936;5.334;2024-02-26T08:37:34;11.95;;;8.25;;
25023;SDS011;13033;50.936;5.334;2024-02-26T08:40:00;9.35;;;7.68;;
25023;SDS011;13033;50.936;5.334;2024-02-26T08:42:26;12.77;;;8.48;;
25023;SDS011;13033;50.936;5.334;2024-02-26T08:44:52;11.77;;;8.20;;
25023;SDS011;13033;50.936;5.334;2024-02-26T08:47:19;10.77;;;8.18;;
25023;SDS011;13033;50.936;5.334;2024-02-26T08:49:45;11.48;;;9.00;;
25023;SDS011;13033;50.936;5.334;2024-02-26T08:52:11;10.25;;;8.32;;
25023;SDS011;13033;50.936;5.334;2024-02-26T08:54:36;11.73;;;8.13;;
25023;SDS011;13033;50.936;5.334;2024-02-26T08:57:02;10.43;;;8.15;;
25023;SDS011;13033;50.936;5.334;2024-02-26T08:59:28;10.85;;;8.18;;
25023;SDS011;13033;50.936;5.334;2024-02-26T09:01:54;9.48;;;7.03;;
25023;SDS011;13033;50.936;5.334;2024-02-26T09:04:20;12.27;;;8.02;;
25023;SDS011;13033;50.936;5.334;2024-02-26T09:06:45;10.70;;;7.90;;
25023;SDS011;13033;50.936;5.334;2024-02-26T09:09:12;10.65;;;7.72;;
25023;SDS011;13033;50.936;5.334;2024-02-26T09:11:37;10.60;;;7.75;;
25023;SDS011;13033;50.936;5.334;2024-02-26T09:14:03;8.45;;;7.35;;
25023;SDS011;13033;50.936;5.334;2024-02-26T09:16:29;10.10;;;7.18;;
25023;SDS011;13033;50.936;5.334;2024-02-26T09:18:56;8.38;;;7.15;;
25023;SDS011;13033;50.936;5.334;2024-02-26T09:21:22;10.15;;;7.47;;
25023;SDS011;13033;50.936;5.334;2024-02-26T09:23:49;9.82;;;7.10;;
25023;SDS011;13033;50.936;5.334;2024-02-26T09:26:16;8.63;;;6.20;;
25023;SDS011;13033;50.936;5.334;2024-02-26T09:28:42;8.80;;;6.75;;
25023;SDS011;13033;50.936;5.334;2024-02-26T09:31:07;7.78;;;6.20;;
25023;SDS011;13033;50.936;5.334;2024-02-26T09:33:33;9.90;;;6.60;;
25023;SDS011;13033;50.936;5.334;2024-02-26T09:35:59;7.70;;;6.18;;
25023;SDS011;13033;50.936;5.334;2024-02-26T09:38:28;9.55;;;6.50;;
25023;SDS011;13033;50.936;5.334;2024-02-26T09:40:56;9.63;;;5.88;;
25023;SDS011;13033;50.936;5.334;2024-02-26T09:43:23;8.00;;;5.55;;
25023;SDS011;13033;50.936;5.334;2024-02-26T09:45:52;5.80;;;4.65;;
25023;SDS011;13033;50.936;5.334;2024-02-26T09:48:18;6.88;;;5.47;;
25023;SDS011;13033;50.936;5.334;2024-02-26T09:50:45;8.65;;;5.57;;
25023;SDS011;13033;50.936;5.334;2024-02-26T09:53:12;7.07;;;5.57;;
25023;SDS011;13033;50.936;5.334;2024-02-26T09:55:39;7.60;;;5.90;;
25023;SDS011;13033;50.936;5.334;2024-02-26T09:58:05;8.07;;;5.47;;
25023;SDS011;13033;50.936;5.334;2024-02-26T10:00:32;8.70;;;5.72;;
25023;SDS011;13033;50.936;5.334;2024-02-26T10:03:02;6.63;;;5.88;;
25023;SDS011;13033;50.936;5.334;2024-02-26T10:05:29;7.80;;;5.95;;
25023;SDS011;13033;50.936;5.334;2024-02-26T10:07:58;9.30;;;6.13;;
25023;SDS011;13033;50.936;5.334;2024-02-26T10:10:27;9.90;;;6.35;;
25023;SDS011;13033;50.936;5.334;2024-02-26T10:12:54;9.23;;;6.25;;
25023;SDS011;13033;50.936;5.334;2024-02-26T10:15:20;9.38;;;5.95;;
25023;SDS011;13033;50.936;5.334;2024-02-26T10:17:45;8.10;;;6.30;;
25023;SDS011;13033;50.936;5.334;2024-02-26T10:22:38;7.00;;;5.75;;
25023;SDS011;13033;50.936;5.334;2024-02-26T10:25:04;7.13;;;5.85;;
25023;SDS011;13033;50.936;5.334;2024-02-26T10:27:30;10.13;;;6.43;;
25023;SDS011;13033;50.936;5.334;2024-02-26T10:29:57;7.45;;;5.93;;
25023;SDS011;13033;50.936;5.334;2024-02-26T10:32:22;8.32;;;5.82;;
25023;SDS011;13033;50.936;5.334;2024-02-26T10:34:48;10.38;;;7.03;;
25023;SDS011;13033;50.936;5.334;2024-02-26T10:37:21;10.00;;;6.40;;
25023;SDS011;13033;50.936;5.334;2024-02-26T10:39:47;8.93;;;7.05;;
25023;SDS011;13033;50.936;5.334;2024-02-26T10:42:13;9.50;;;6.93;;
25023;SDS011;13033;50.936;5.334;2024-02-26T10:44:40;9.43;;;6.55;;
25023;SDS011;13033;50.936;5.334;2024-02-26T10:47:07;8.30;;;6.40;;
25023;SDS011;13033;50.936;5.334;2024-02-26T10:49:34;9.27;;;6.70;;
25023;SDS011;13033;50.936;5.334;2024-02-26T10:52:00;9.15;;;7.00;;
25023;SDS011;13033;50.936;5.334;2024-02-26T10:54:29;7.60;;;6.65;;
25023;SDS011;13033;50.936;5.334;2024-02-26T10:56:57;8.43;;;6.50;;
25023;SDS011;13033;50.936;5.334;2024-02-26T10:59:23;9.25;;;6.53;;
25023;SDS011;13033;50.936;5.334;2024-02-26T11:01:50;7.93;;;7.00;;
25023;SDS011;13033;50.936;5.334;2024-02-26T11:04:16;9.18;;;7.28;;
25023;SDS011;13033;50.936;5.334;2024-02-26T11:06:43;9.07;;;7.10;;
25023;SDS011;13033;50.936;5.334;2024-02-26T11:09:11;9.63;;;7.45;;
25023;SDS011;13033;50.936;5.334;2024-02-26T11:11:40;7.72;;;6.85;;
25023;SDS011;13033;50.936;5.334;2024-02-26T11:14:08;8.20;;;6.80;;
25023;SDS011;13033;50.936;5.334;2024-02-26T11:16:35;9.32;;;6.65;;
25023;SDS011;13033;50.936;5.334;2024-02-26T11:19:01;10.73;;;8.02;;
25023;SDS011;13033;50.936;5.334;2024-02-26T11:21:28;9.18;;;7.88;;
25023;SDS011;13033;50.936;5.334;2024-02-26T11:24:08;10.05;;;8.23;;
25023;SDS011;13033;50.936;5.334;2024-02-26T11:26:40;10.68;;;8.18;;
25023;SDS011;13033;50.936;5.334;2024-02-26T11:29:10;11.95;;;9.00;;
25023;SDS011;13033;50.936;5.334;2024-02-26T11:31:38;12.20;;;9.15;;
25023;SDS011;13033;50.936;5.334;2024-02-26T11:34:06;9.63;;;8.55;;
25023;SDS011;13033;50.936;5.334;2024-02-26T11:36:33;10.25;;;8.30;;
25023;SDS011;13033;50.936;5.334;2024-02-26T11:39:01;12.02;;;9.10;;
25023;SDS011;13033;50.936;5.334;2024-02-26T11:41:28;10.50;;;8.50;;
25023;SDS011;13033;50.936;5.334;2024-02-26T11:46:32;12.37;;;8.77;;
25023;SDS011;13033;50.936;5.334;2024-02-26T11:49:44;11.60;;;9.48;;
25023;SDS011;13033;50.936;5.334;2024-02-26T11:51:54;13.18;;;9.23;;
25023;SDS011;13033;50.936;5.334;2024-02-26T11:57:19;11.63;;;8.07;;
25023;SDS011;13033;50.936;5.334;2024-02-26T11:59:46;9.38;;;7.75;;
25023;SDS011;13033;50.936;5.334;2024-02-26T12:02:12;11.77;;;8.05;;
25023;SDS011;13033;50.936;5.334;2024-02-26T12:04:58;11.27;;;8.73;;
25023;SDS011;13033;50.936;5.334;2024-02-26T12:07:23;10.68;;;8.40;;
25023;SDS011;13033;50.936;5.334;2024-02-26T12:09:49;11.52;;;8.63;;
25023;SDS011;13033;50.936;5.334;2024-02-26T12:12:17;10.63;;;8.85;;
25023;SDS011;13033;50.936;5.334;2024-02-26T12:14:53;11.20;;;8.18;;
25023;SDS011;13033;50.936;5.334;2024-02-26T12:17:21;12.63;;;9.10;;
25023;SDS011;13033;50.936;5.334;2024-02-26T12:19:50;14.13;;;9.35;;
25023;SDS011;13033;50.936;5.334;2024-02-26T12:22:18;12.00;;;9.77;;
25023;SDS011;13033;50.936;5.334;2024-02-26T12:24:44;13.30;;;10.48;;
25023;SDS011;13033;50.936;5.334;2024-02-26T12:27:10;12.77;;;11.20;;
25023;SDS011;13033;50.936;5.334;2024-02-26T12:29:36;11.98;;;10.48;;
25023;SDS011;13033;50.936;5.334;2024-02-26T12:32:02;11.68;;;9.73;;
25023;SDS011;13033;50.936;5.334;2024-02-26T12:34:29;11.05;;;9.32;;
25023;SDS011;13033;50.936;5.334;2024-02-26T12:36:55;11.32;;;9.32;;
25023;SDS011;13033;50.936;5.334;2024-02-26T12:39:22;10.88;;;9.48;;
25023;SDS011;13033;50.936;5.334;2024-02-26T12:41:47;10.32;;;8.63;;
25023;SDS011;13033;50.936;5.334;2024-02-26T12:44:17;10.23;;;7.93;;
25023;SDS011;13033;50.936;5.334;2024-02-26T12:46:43;8.38;;;7.30;;
25023;SDS011;13033;50.936;5.334;2024-02-26T12:49:14;7.68;;;6.88;;
25023;SDS011;13033;50.936;5.334;2024-02-26T12:51:41;7.05;;;6.03;;
25023;SDS011;13033;50.936;5.334;2024-02-26T12:54:06;6.88;;;6.18;;
25023;SDS011;13033;50.936;5.334;2024-02-26T12:56:33;8.75;;;6.55;;
25023;SDS011;13033;50.936;5.334;2024-02-26T12:58:59;8.18;;;6.93;;
25023;SDS011;13033;50.936;5.334;2024-02-26T13:01:26;7.43;;;6.63;;
25023;SDS011;13033;50.936;5.334;2024-02-26T13:03:52;9.43;;;6.90;;
25023;SDS011;13033;50.936;5.334;2024-02-26T13:06:19;7.85;;;6.93;;
25023;SDS011;13033;50.936;5.334;2024-02-26T13:08:47;8.18;;;6.72;;
25023;SDS011;13033;50.936;5.334;2024-02-26T13:11:14;8.90;;;7.63;;
25023;SDS011;13033;50.936;5.334;2024-02-26T13:13:40;9.48;;;7.07;;
25023;SDS011;13033;50.936;5.334;2024-02-26T13:16:06;8.75;;;7.35;;
25023;SDS011;13033;50.936;5.334;2024-02-26T13:18:34;7.63;;;6.88;;
25023;SDS011;13033;50.936;5.334;2024-02-26T13:21:13;7.05;;;6.25;;
25023;SDS011;13033;50.936;5.334;2024-02-26T13:23:43;7.53;;;6.55;;
25023;SDS011;13033;50.936;5.334;2024-02-26T13:26:13;8.07;;;7.03;;
25023;SDS011;13033;50.936;5.334;2024-02-26T13:28:39;10.10;;;7.20;;
25023;SDS011;13033;50.936;5.334;2024-02-26T13:31:05;8.60;;;7.70;;
25023;SDS011;13033;50.936;5.334;2024-02-26T13:33:33;9.07;;;8.00;;
25023;SDS011;13033;50.936;5.334;2024-02-26T13:35:59;9.50;;;8.48;;
25023;SDS011;13033;50.936;5.334;2024-02-26T13:38:25;11.20;;;9.00;;
25023;SDS011;13033;50.936;5.334;2024-02-26T13:40:52;9.98;;;8.57;;
25023;SDS011;13033;50.936;5.334;2024-02-26T13:43:18;13.07;;;9.63;;
25023;SDS011;13033;50.936;5.334;2024-02-26T13:45:45;11.95;;;9.75;;
25023;SDS011;13033;50.936;5.334;2024-02-26T13:48:11;13.02;;;10.13;;
25023;SDS011;13033;50.936;5.334;2024-02-26T13:50:38;14.93;;;11.50;;
25023;SDS011;13033;50.936;5.334;2024-02-26T13:53:04;13.02;;;11.02;;
25023;SDS011;13033;50.936;5.334;2024-02-26T13:55:31;15.15;;;10.95;;
25023;SDS011;13033;50.936;5.334;2024-02-26T13:57:57;15.27;;;10.77;;
25023;SDS011;13033;50.936;5.334;2024-02-26T14:00:24;15.02;;;10.90;;
25023;SDS011;13033;50.936;5.334;2024-02-26T14:02:52;14.95;;;11.13;;
25023;SDS011;13033;50.936;5.334;2024-02-26T14:05:18;15.82;;;11.73;;
25023;SDS011;13033;50.936;5.334;2024-02-26T14:07:43;15.18;;;11.65;;
25023;SDS011;13033;50.936;5.334;2024-02-26T14:10:11;15.25;;;11.35;;
25023;SDS011;13033;50.936;5.334;2024-02-26T14:12:37;17.52;;;12.50;;
25023;SDS011;13033;50.936;5.334;2024-02-26T14:15:04;14.95;;;12.55;;
25023;SDS011;13033;50.936;5.334;2024-02-26T14:17:33;16.98;;;12.20;;
25023;SDS011;13033;50.936;5.334;2024-02-26T14:19:59;15.15;;;12.10;;
25023;SDS011;13033;50.936;5.334;2024-02-26T14:22:25;18.88;;;12.98;;
25023;SDS011;13033;50.936;5.334;2024-02-26T14:24:53;16.70;;;12.32;;
25023;SDS011;13033;50.936;5.334;2024-02-26T14:27:19;19.23;;;13.50;;
25023;SDS011;13033;50.936;5.334;2024-02-26T14:29:47;17.45;;;13.07;;
25023;SDS011;13033;50.936;5.334;2024-02-26T14:32:13;17.50;;;13.13;;
25023;SDS011;13033;50.936;5.334;2024-02-26T14:34:39;19.20;;;13.38;;
25023;SDS011;13033;50.936;5.334;2024-02-26T14:37:04;18.85;;;13.05;;
25023;SDS011;13033;50.936;5.334;2024-02-26T14:39:33;18.83;;;14.13;;
25023;SDS011;13033;50.936;5.334;2024-02-26T14:42:00;20.30;;;13.70;;
25023;SDS011;13033;50.936;5.334;2024-02-26T14:44:26;17.52;;;13.23;;
25023;SDS011;13033;50.936;5.334;2024-02-26T14:46:52;16.55;;;12.38;;